Weather at Feldmann Field

Public forecast

Using degrees Fahrenheit for public forecast. Weather courtesy of forecast.io.

Closest aviation weather report (METAR) to Feldmann Field

Closest report is Sheboygan County Memorial Airport, 2.9 nm (5.3 km) SE. Retrieved 2021/06/23 00:53 UTC (1 hour ago):

KSBM 230053Z AUTO 00000KT 10SM CLR 18/09 A2993 RMK AO2 SLP136 T01830089

Closest aviation forecast (TAF) to Feldmann Field

Closest forecast is Sheboygan County Memorial Airport, 2.9 nm (5.3 km) SE. Retrieved 2021-06-23 00:33 UTC (1 hour ago):

TAF KSBM 222330Z 2300/2324 VRB05KT P6SM SCT080 FM230500 15005KT P6SM FEW080 SCT150 FM231200 20007KT P6SM SCT025 BKN050 TEMPO 2313/2316 6SM -SHRA BKN025 FM231600 20011KT P6SM BKN025 FM231900 19012G20KT P6SM BKN040